createdAt,value
2018-08-13T00:00:59.882Z,53.31
2018-08-13T00:02:09.735Z,53.4
2018-08-13T00:03:19.879Z,53.5
2018-08-13T00:04:30.076Z,53.31
2018-08-13T00:05:39.947Z,53.4
2018-08-13T00:06:50.164Z,53.02
2018-08-13T00:07:59.961Z,53.31
2018-08-13T00:09:10.094Z,53.4
2018-08-13T00:10:20.263Z,53.59
2018-08-13T00:11:30.403Z,53.88
2018-08-13T00:12:40.572Z,54.17
2018-08-13T00:13:50.433Z,54.17
2018-08-13T00:15:00.604Z,54.27
2018-08-13T00:16:10.754Z,54.46
2018-08-13T00:17:20.993Z,54.27
2018-08-13T00:18:31.225Z,54.94
2018-08-13T00:19:41.473Z,54.65
2018-08-13T00:20:51.757Z,54.94
2018-08-13T00:22:01.923Z,54.85
2018-08-13T00:23:11.797Z,54.56
2018-08-13T00:24:21.923Z,54.94
2018-08-13T00:25:31.822Z,54.65
2018-08-13T00:26:41.982Z,54.85
2018-08-13T00:27:52.224Z,54.94
2018-08-13T00:29:02.372Z,55.2
2018-08-13T00:30:12.304Z,55.43
2018-08-13T00:31:22.430Z,55.33
2018-08-13T00:32:32.342Z,54.94
2018-08-13T00:33:42.414Z,55.43
2018-08-13T00:34:52.524Z,55.43
2018-08-13T00:36:02.659Z,55.4
2018-08-13T00:37:12.789Z,55.78
2018-08-13T00:38:22.974Z,55.2
2018-08-13T00:39:33.146Z,55.49
2018-08-13T00:40:43.251Z,55.4
2018-08-13T00:41:53.402Z,55.4
2018-08-13T00:43:03.533Z,55.3
2018-08-13T00:44:13.658Z,55.49
2018-08-13T00:45:23.443Z,55.3
2018-08-13T00:46:33.368Z,55.49
2018-08-13T00:47:43.274Z,55.2
2018-08-13T00:48:54.378Z,55.78
2018-08-13T00:50:04.528Z,55.49
2018-08-13T00:51:14.288Z,55.68
2018-08-13T00:52:24.400Z,55.68
2018-08-13T00:53:34.529Z,55.49
2018-08-13T00:54:44.739Z,55.59
2018-08-13T00:55:54.353Z,55.98
2018-08-13T00:57:04.646Z,55.59
2018-08-13T00:58:14.807Z,56.07
2018-08-13T00:59:24.956Z,55.98
2018-08-13T01:00:35.090Z,56.16
2018-08-13T01:01:45.252Z,56.55
2018-08-13T01:02:55.371Z,56.55
2018-08-13T01:04:05.525Z,56.33
2018-08-13T01:05:15.855Z,56.43
2018-08-13T01:06:26.023Z,56.43
2018-08-13T01:07:35.913Z,56.81
2018-08-13T01:08:46.045Z,56.91
2018-08-13T01:09:55.807Z,56.91
2018-08-13T01:11:05.937Z,56.71
2018-08-13T01:12:16.140Z,56.81
2018-08-13T01:13:26.301Z,56.81
2018-08-13T01:14:36.467Z,56.91
2018-08-13T01:15:46.679Z,56.91
2018-08-13T01:16:56.572Z,56.81
2018-08-13T01:18:06.718Z,56.62
2018-08-13T01:19:16.938Z,56.52
2018-08-13T01:20:27.165Z,56.71
2018-08-13T01:21:37.329Z,57
2018-08-13T01:22:46.825Z,57.2
2018-08-13T01:23:56.952Z,57.1
2018-08-13T01:25:07.088Z,57.29
2018-08-13T01:26:18.215Z,57.48
2018-08-13T01:27:28.382Z,57.39
2018-08-13T01:28:38.575Z,57.58
2018-08-13T01:29:48.556Z,57.58
2018-08-13T01:30:58.432Z,57.48
2018-08-13T01:32:08.313Z,57.2
2018-08-13T01:33:18.526Z,57.29
2018-08-13T01:34:28.719Z,57.39
2018-08-13T01:35:38.971Z,57.39
2018-08-13T01:36:49.267Z,57.97
2018-08-13T01:37:59.413Z,57.97
2018-08-13T01:39:09.587Z,58.06
2018-08-13T01:40:19.700Z,57.58
2018-08-13T01:41:29.584Z,58.06
2018-08-13T01:42:39.551Z,57.87
2018-08-13T01:43:49.742Z,57.97
2018-08-13T01:44:59.574Z,58.25
2018-08-13T01:46:09.759Z,58.15
2018-08-13T01:47:19.894Z,57.97
2018-08-13T01:48:29.758Z,57.84
2018-08-13T01:49:39.888Z,57.39
2018-08-13T01:50:50.087Z,57.48
2018-08-13T01:52:00.207Z,57.39
2018-08-13T01:53:11.393Z,57.39
2018-08-13T01:54:21.569Z,57.97
2018-08-13T01:55:31.704Z,57.87
2018-08-13T01:56:41.846Z,58.32
2018-08-13T01:57:51.987Z,58.13
2018-08-13T01:59:01.856Z,58.32
2018-08-13T02:00:11.970Z,58.61
2018-08-13T02:01:22.193Z,58.7
2018-08-13T02:02:32.827Z,58.7
2018-08-13T02:03:43.049Z,58.51
2018-08-13T02:04:53.182Z,58.32
2018-08-13T02:06:03.318Z,58.61
2018-08-13T02:07:12.960Z,58.8
2018-08-13T02:08:23.126Z,58.7
2018-08-13T02:09:33.263Z,58.51
2018-08-13T02:10:43.160Z,58.61
2018-08-13T02:11:53.313Z,58.51
2018-08-13T02:13:03.466Z,58.99
2018-08-13T02:14:13.584Z,59.38
2018-08-13T02:15:23.806Z,59.19
2018-08-13T02:16:34.037Z,59.28
2018-08-13T02:17:44.238Z,59.57
2018-08-13T02:18:54.459Z,59.38
2018-08-13T02:20:04.330Z,59.38
2018-08-13T02:21:14.487Z,59.47
2018-08-13T02:22:24.624Z,59.86
2018-08-13T02:23:34.841Z,59.57
2018-08-13T02:24:44.978Z,59.83
2018-08-13T02:25:55.110Z,59.86
2018-08-13T02:27:05.223Z,59.95
2018-08-13T02:28:15.117Z,59.47
2018-08-13T02:29:24.983Z,60.02
2018-08-13T02:30:35.125Z,59.57
2018-08-13T02:31:45.421Z,59.66
2018-08-13T02:32:55.572Z,59.76
2018-08-13T02:34:05.742Z,59.66
2018-08-13T02:35:15.879Z,59.57
2018-08-13T02:36:26.026Z,59.66
2018-08-13T02:37:36.168Z,59.76
2018-08-13T02:38:46.401Z,59.76
2018-08-13T02:39:56.586Z,59.95
2018-08-13T02:41:06.206Z,59.86
2018-08-13T02:42:16.396Z,59.66
2018-08-13T02:43:26.561Z,59.66
2018-08-13T02:44:36.783Z,59.95
2018-08-13T02:45:47.072Z,60.14
2018-08-13T02:46:57.228Z,60.24
2018-08-13T02:48:07.405Z,59.66
2018-08-13T02:49:17.671Z,60.05
2018-08-13T02:50:27.830Z,59.86
2018-08-13T02:51:37.931Z,59.76
2018-08-13T02:52:47.968Z,59.47
2018-08-13T02:53:57.835Z,59.38
2018-08-13T02:55:07.964Z,59.57
2018-08-13T02:56:18.177Z,59.47
2018-08-13T02:57:27.929Z,58.99
2018-08-13T02:58:38.163Z,58.61
2018-08-13T02:59:48.333Z,58.22
2018-08-13T03:00:58.241Z,57.65
2018-08-13T03:02:08.394Z,58.13
2018-08-13T03:03:18.541Z,58.22
2018-08-13T03:04:28.797Z,57.07
2018-08-13T03:05:39.168Z,57.36
2018-08-13T03:06:49.330Z,57.45
2018-08-13T03:07:59.474Z,57.17
2018-08-13T03:09:09.631Z,57.55
2018-08-13T03:10:19.497Z,57.55
2018-08-13T03:11:29.839Z,57.55
2018-08-13T03:12:39.983Z,56.98
2018-08-13T03:13:51.082Z,57.45
2018-08-13T03:15:01.196Z,57.55
2018-08-13T03:16:11.336Z,57.26
2018-08-13T03:17:21.570Z,57.36
2018-08-13T03:18:31.853Z,56.49
2018-08-13T03:19:42.137Z,56.21
2018-08-13T03:20:52.306Z,56.21
2018-08-13T03:22:02.510Z,56.3
2018-08-13T03:23:12.376Z,56.3
2018-08-13T03:24:22.145Z,56.59
2018-08-13T03:25:32.039Z,55.63
2018-08-13T03:26:42.162Z,55.44
2018-08-13T03:27:51.800Z,55.63
2018-08-13T03:29:02.156Z,55.44
2018-08-13T03:30:12.290Z,55.82
2018-08-13T03:31:22.439Z,55.53
2018-08-13T03:32:32.572Z,55.15
2018-08-13T03:33:42.822Z,54.96
2018-08-13T03:34:52.981Z,54.77
2018-08-13T03:36:04.134Z,55.05
2018-08-13T03:37:14.294Z,55.05
2018-08-13T03:38:24.167Z,55.44
2018-08-13T03:39:34.080Z,56.27
2018-08-13T03:40:44.214Z,56.85
2018-08-13T03:41:54.376Z,57.23
2018-08-13T03:43:04.508Z,56.56
2018-08-13T03:44:14.670Z,56.85
2018-08-13T03:45:24.909Z,57.14
2018-08-13T03:46:35.146Z,57.62
2018-08-13T03:47:45.282Z,57.04
2018-08-13T03:48:55.445Z,57.43
2018-08-13T03:50:05.330Z,57.23
2018-08-13T03:51:15.607Z,57.43
2018-08-13T03:52:25.490Z,57.52
2018-08-13T03:53:35.609Z,57.43
2018-08-13T03:54:45.879Z,57.52
2018-08-13T03:55:56.045Z,57.04
2018-08-13T03:57:05.914Z,56.95
2018-08-13T03:58:16.027Z,56.85
2018-08-13T03:59:26.147Z,56.76
2018-08-13T04:00:36.280Z,57.04
2018-08-13T04:01:46.453Z,56.56
2018-08-13T04:02:56.570Z,56.85
2018-08-13T04:04:06.709Z,56.37
2018-08-13T04:05:16.850Z,56.46
2018-08-13T04:06:26.797Z,56.46
2018-08-13T04:07:36.946Z,56.46
2018-08-13T04:08:47.068Z,56.56
2018-08-13T04:09:57.188Z,56.37
2018-08-13T04:11:07.341Z,56.46
2018-08-13T04:12:17.625Z,56.85
2018-08-13T04:13:27.479Z,56.85
2018-08-13T04:14:37.812Z,56.76
2018-08-13T04:15:47.937Z,56.85
2018-08-13T04:16:58.085Z,56.56
2018-08-13T04:18:07.582Z,55.69
2018-08-13T04:19:17.761Z,55.69
2018-08-13T04:20:27.880Z,55.32
2018-08-13T04:21:38.015Z,54.93
2018-08-13T04:22:48.246Z,54.83
2018-08-13T04:23:58.129Z,54.35
2018-08-13T04:25:07.735Z,54.16
2018-08-13T04:26:18.011Z,53.68
2018-08-13T04:27:28.164Z,53.58
2018-08-13T04:28:37.974Z,53.2
2018-08-13T04:29:48.334Z,53.11
2018-08-13T04:30:58.443Z,53.3
2018-08-13T04:32:08.556Z,53.3
2018-08-13T04:33:18.783Z,52.81
2018-08-13T04:34:28.983Z,53.42
2018-08-13T04:35:39.195Z,53.42
2018-08-13T04:36:50.294Z,53.3
2018-08-13T04:38:00.573Z,52.84
2018-08-13T04:39:10.697Z,52.55
2018-08-13T04:40:20.862Z,52.17
2018-08-13T04:41:30.497Z,51.88
2018-08-13T04:42:40.625Z,51.88
2018-08-13T04:43:50.756Z,50.73
2018-08-13T04:45:00.985Z,51.02
2018-08-13T04:46:11.195Z,50.92
2018-08-13T04:47:21.401Z,51.02
2018-08-13T04:48:31.640Z,50.63
2018-08-13T04:49:41.790Z,51.02
2018-08-13T04:50:52.001Z,50.92
2018-08-13T04:52:01.870Z,51.04
2018-08-13T04:53:12.150Z,50.76
2018-08-13T04:54:22.012Z,50.37
2018-08-13T04:55:32.151Z,49.99
2018-08-13T04:56:42.011Z,50.37
2018-08-13T04:57:52.383Z,50.46
2018-08-13T04:59:02.647Z,50.18
2018-08-13T05:00:12.894Z,50.08
2018-08-13T05:01:23.056Z,49.99
2018-08-13T05:02:33.245Z,50.08
2018-08-13T05:03:43.494Z,49.69
2018-08-13T05:04:53.389Z,49.69
2018-08-13T05:06:03.516Z,49.51
2018-08-13T05:07:14.707Z,49.6
2018-08-13T05:08:24.690Z,49.69
2018-08-13T05:09:34.221Z,49.69
2018-08-13T05:10:44.590Z,49.6
2018-08-13T05:11:54.446Z,49.69
2018-08-13T05:13:05.559Z,49.6
2018-08-13T05:14:15.680Z,49.69
2018-08-13T05:15:25.805Z,49.69
2018-08-13T05:16:35.929Z,49.79
2018-08-13T05:17:45.808Z,49.51
2018-08-13T05:18:55.978Z,49.51
2018-08-13T05:20:06.190Z,49.79
2018-08-13T05:21:16.511Z,49.69
2018-08-13T05:22:26.916Z,49.51
2018-08-13T05:23:37.037Z,49.69
2018-08-13T05:24:46.790Z,49.79
2018-08-13T05:25:56.916Z,49.41
2018-08-13T05:27:06.788Z,49.22
2018-08-13T05:28:16.708Z,49.22
2018-08-13T05:29:26.566Z,49.12
2018-08-13T05:30:36.684Z,48.93
2018-08-13T05:31:46.882Z,49.31
2018-08-13T05:32:57.025Z,49.02
2018-08-13T05:34:06.824Z,49.12
2018-08-13T05:35:17.006Z,49.02
2018-08-13T05:36:27.149Z,49.22
2018-08-13T05:37:37.035Z,49.02
2018-08-13T05:38:47.255Z,48.95
2018-08-13T05:39:57.505Z,49.15
2018-08-13T05:41:07.663Z,49.15
2018-08-13T05:42:17.916Z,49.43
2018-08-13T05:43:27.859Z,49.05
2018-08-13T05:44:38.005Z,48.95
2018-08-13T05:45:48.153Z,48.69
2018-08-13T05:46:58.424Z,48.97
2018-08-13T05:48:08.574Z,48.85
2018-08-13T05:49:18.822Z,48.59
2018-08-13T05:50:29.047Z,48.59
2018-08-13T05:51:40.195Z,48.21
2018-08-13T05:52:50.505Z,48.21
2018-08-13T05:54:00.893Z,47.92
2018-08-13T05:55:11.343Z,48.02
2018-08-13T05:56:21.605Z,47.63
2018-08-13T05:57:31.783Z,47.72
2018-08-13T05:58:41.660Z,47.34
2018-08-13T05:59:52.498Z,47.82
2018-08-13T06:01:02.367Z,47.44
2018-08-13T06:02:12.491Z,47.05
2018-08-13T06:03:22.612Z,46.95
2018-08-13T06:04:32.781Z,47.15
2018-08-13T06:05:42.935Z,47.05
2018-08-13T06:06:53.180Z,46.86
2018-08-13T06:08:03.322Z,46.69
2018-08-13T06:09:13.567Z,46.59
2018-08-13T06:10:23.709Z,46.31
2018-08-13T06:11:33.724Z,46.01
2018-08-13T06:12:44.252Z,46.01
2018-08-13T06:13:54.449Z,46.11
2018-08-13T06:15:04.664Z,45.83
2018-08-13T06:16:14.888Z,46.11
2018-08-13T06:17:25.195Z,45.83
2018-08-13T06:18:35.373Z,45.83
2018-08-13T06:19:45.553Z,45.27
2018-08-13T06:20:55.715Z,45.36
2018-08-13T06:22:05.697Z,45.36
2018-08-13T06:23:16.037Z,45.46
2018-08-13T06:24:26.566Z,45.56
2018-08-13T06:25:36.449Z,45.27
2018-08-13T06:26:46.590Z,45.46
2018-08-13T06:27:56.791Z,45.27
2018-08-13T06:29:06.938Z,45.56
2018-08-13T06:30:17.221Z,45.27
2018-08-13T06:31:27.403Z,45.07
2018-08-13T06:32:37.343Z,45.17
2018-08-13T06:33:47.494Z,45.46
2018-08-13T06:34:57.643Z,45.39
2018-08-13T06:36:07.784Z,45.07
2018-08-13T06:37:18.077Z,44.89
2018-08-13T06:38:28.541Z,44.81
2018-08-13T06:39:38.654Z,44.52
2018-08-13T06:40:48.767Z,44.71
2018-08-13T06:41:58.926Z,44.42
2018-08-13T06:43:09.144Z,44.42
2018-08-13T06:44:19.340Z,44.32
2018-08-13T06:45:29.540Z,44.42
2018-08-13T06:46:39.407Z,44.23
2018-08-13T06:47:49.538Z,44.13
2018-08-13T06:48:59.686Z,44.42
2018-08-13T06:50:09.901Z,44.32
2018-08-13T06:51:20.076Z,44.32
2018-08-13T06:52:30.232Z,43.75
2018-08-13T06:53:40.485Z,43.85
2018-08-13T06:54:50.608Z,43.94
2018-08-13T06:56:00.734Z,43.96
2018-08-13T06:57:10.504Z,43.58
2018-08-13T06:58:20.377Z,44.06
2018-08-13T06:59:30.624Z,44.25
2018-08-13T07:00:40.840Z,43.58
2018-08-13T07:01:51.124Z,44.15
2018-08-13T07:03:01.260Z,43.77
2018-08-13T07:04:11.552Z,43.87
2018-08-13T07:05:21.845Z,43.48
2018-08-13T07:06:31.726Z,43.6
2018-08-13T07:07:41.883Z,43.5
2018-08-13T07:08:53.027Z,43.5
2018-08-13T07:10:03.241Z,43.6
2018-08-13T07:11:13.410Z,43.5
2018-08-13T07:12:23.550Z,43.12
2018-08-13T07:13:33.491Z,43.12
2018-08-13T07:14:43.678Z,42.75
2018-08-13T07:15:53.801Z,42.85
2018-08-13T07:17:03.964Z,42.56
2018-08-13T07:18:14.206Z,42.56
2018-08-13T07:19:24.443Z,42.36
2018-08-13T07:20:34.604Z,42.56
2018-08-13T07:21:44.739Z,42.1
2018-08-13T07:22:54.892Z,42.39
2018-08-13T07:24:05.009Z,42.29
2018-08-13T07:25:15.188Z,41.91
2018-08-13T07:26:25.347Z,41.91
2018-08-13T07:27:35.498Z,42.02
2018-08-13T07:28:45.775Z,41.93
2018-08-13T07:29:55.910Z,41.83
2018-08-13T07:31:06.181Z,41.54
2018-08-13T07:32:16.046Z,41.73
2018-08-13T07:33:26.312Z,41.54
2018-08-13T07:34:36.904Z,41.54
2018-08-13T07:35:46.784Z,41.73
2018-08-13T07:36:56.915Z,41.66
2018-08-13T07:38:07.056Z,41.85
2018-08-13T07:39:17.282Z,41.94
2018-08-13T07:40:27.465Z,41.85
2018-08-13T07:41:37.697Z,41.94
2018-08-13T07:42:47.927Z,42.33
2018-08-13T07:43:59.034Z,42.52
2018-08-13T07:45:08.964Z,42.33
2018-08-13T07:46:19.150Z,42.43
2018-08-13T07:47:29.422Z,42.33
2018-08-13T07:48:39.538Z,42.33
2018-08-13T07:49:49.615Z,42.43
2018-08-13T07:50:59.921Z,42.33
2018-08-13T07:52:10.121Z,42.55
2018-08-13T07:53:20.417Z,42.65
2018-08-13T07:54:30.585Z,42.65
2018-08-13T07:55:40.940Z,42.83
2018-08-13T07:56:50.970Z,42.45
2018-08-13T07:58:00.874Z,42.55
2018-08-13T07:59:11.003Z,42.35
2018-08-13T08:00:21.147Z,42.93
2018-08-13T08:01:31.157Z,42.25
2018-08-13T08:02:41.289Z,42.55
2018-08-13T08:03:51.486Z,42.35
2018-08-13T08:05:01.826Z,41.97
2018-08-13T08:06:12.309Z,42.08
2018-08-13T08:07:22.550Z,41.5
2018-08-13T08:08:32.684Z,41.41
2018-08-13T08:09:42.901Z,41.42
2018-08-13T08:10:53.054Z,41.04
2018-08-13T08:12:03.183Z,40.84
2018-08-13T08:13:13.317Z,40.67
2018-08-13T08:14:22.966Z,40.58
2018-08-13T08:15:33.091Z,40.28
2018-08-13T08:16:43.230Z,40
2018-08-13T08:17:53.360Z,39.62
2018-08-13T08:19:03.476Z,39.72
2018-08-13T08:20:13.658Z,39.36
2018-08-13T08:21:23.931Z,38.89
2018-08-13T08:22:34.473Z,38.31
2018-08-13T08:23:44.659Z,38.23
2018-08-13T08:24:54.900Z,37.74
2018-08-13T08:26:04.828Z,37.47
2018-08-13T08:27:14.707Z,36.99
2018-08-13T08:28:24.887Z,36.81
2018-08-13T08:29:35.023Z,36.52
2018-08-13T08:30:45.167Z,36.13
2018-08-13T08:31:56.277Z,35.66
2018-08-13T08:33:06.494Z,35.29
2018-08-13T08:34:16.649Z,34.82
2018-08-13T08:35:26.840Z,33.69
2018-08-13T08:36:36.980Z,33.62
2018-08-13T08:37:47.011Z,32.94
2018-08-13T08:38:56.876Z,33.14
2018-08-13T08:40:06.804Z,32.55
2018-08-13T08:41:16.670Z,31.87
2018-08-13T08:42:26.865Z,31.96
2018-08-13T08:43:37.114Z,31.77
2018-08-13T08:44:47.321Z,31.77
2018-08-13T08:45:57.745Z,31.85
2018-08-13T08:47:08.550Z,31.85
2018-08-13T08:48:18.826Z,31.46
2018-08-13T08:49:28.987Z,30.9
2018-08-13T08:50:39.131Z,30.22
2018-08-13T08:51:49.279Z,29.77
2018-08-13T08:52:59.376Z,28.82
2018-08-13T08:54:09.505Z,28.44
2018-08-13T08:55:19.676Z,28
2018-08-13T08:56:29.868Z,26.45
2018-08-13T08:57:39.784Z,25.99
2018-08-13T08:58:49.937Z,25.02
2018-08-13T09:00:00.127Z,24.85
2018-08-13T09:01:10.295Z,23.97
2018-08-13T09:02:20.321Z,23.9
2018-08-13T09:03:30.313Z,22.93
2018-08-13T09:04:40.193Z,22.55
2018-08-13T09:05:50.395Z,21.86
2018-08-13T09:07:00.762Z,21.94
2018-08-13T09:08:10.959Z,21.55
2018-08-13T09:09:20.907Z,21.94
2018-08-13T09:10:31.175Z,21.83
2018-08-13T09:11:41.095Z,21.72
2018-08-13T09:12:51.070Z,21.8
2018-08-13T09:14:01.212Z,21.51
2018-08-13T09:15:11.503Z,21.42
2018-08-13T09:16:21.717Z,21.33
2018-08-13T09:17:31.601Z,21.52
2018-08-13T09:18:41.501Z,21.23
2018-08-13T09:19:51.650Z,21.53
2018-08-13T09:21:01.854Z,21.44
2018-08-13T09:22:11.630Z,21.34
2018-08-13T09:23:21.780Z,20.86
2018-08-13T09:24:31.963Z,19.49
2018-08-13T09:25:42.260Z,19
2018-08-13T09:26:52.378Z,19.88
2018-08-13T09:28:02.719Z,19.29
2018-08-13T09:29:13.052Z,18.79
2018-08-13T09:30:27.058Z,18.88
2018-08-13T09:31:37.153Z,19.27
2018-08-13T09:32:47.371Z,18.98
2018-08-13T09:33:57.588Z,18.7
2018-08-13T09:35:07.993Z,18.61
2018-08-13T09:36:19.039Z,18.21
2018-08-13T09:37:29.267Z,18.02
2018-08-13T09:38:39.492Z,18.61
2018-08-13T09:39:49.745Z,18.51
2018-08-13T09:41:00.434Z,18.42
2018-08-13T09:42:10.579Z,17.44
2018-08-13T09:44:32.100Z,17.93
2018-08-13T09:45:42.236Z,17.93
2018-08-13T09:46:52.416Z,18.12
2018-08-13T09:48:02.675Z,17.64
2018-08-13T09:49:12.835Z,17.63
2018-08-13T09:50:23.003Z,17.92
2018-08-13T09:51:33.214Z,17.91
2018-08-13T09:52:43.366Z,17.61
2018-08-13T09:53:53.778Z,17.33
2018-08-13T09:55:04.236Z,17.33
2018-08-13T09:56:14.414Z,17.43
2018-08-13T09:57:24.469Z,17.54
2018-08-13T09:58:37.267Z,17.74
2018-08-13T09:59:47.427Z,17.35
2018-08-13T10:00:57.612Z,17.54
2018-08-13T10:02:08.071Z,17.73
2018-08-13T10:03:18.212Z,17.33
2018-08-13T10:04:28.352Z,17.52
2018-08-13T10:06:51.827Z,18
2018-08-13T10:08:01.962Z,18.29
2018-08-13T10:09:12.152Z,18.48
2018-08-13T10:10:22.484Z,18.57
2018-08-13T10:11:32.863Z,18.87
2018-08-13T10:12:43.029Z,18.57
2018-08-13T10:13:53.178Z,18.67
2018-08-13T10:15:35.314Z,18.57
2018-08-13T10:16:45.917Z,18.68
2018-08-13T10:17:56.666Z,18.58
2018-08-13T10:19:07.201Z,18.68
2018-08-13T10:20:17.391Z,18.68
2018-08-13T10:21:27.552Z,19.46
2018-08-13T10:22:37.785Z,19.35
2018-08-13T10:23:47.694Z,19.35
2018-08-13T10:24:57.876Z,19.04
2018-08-13T10:26:08.294Z,19.24
2018-08-13T10:27:18.470Z,19.62
2018-08-13T10:28:28.669Z,19.82
2018-08-13T10:29:38.928Z,19.82
2018-08-13T10:30:48.684Z,20.01
2018-08-13T10:31:58.925Z,19.92
2018-08-13T10:33:09.146Z,20.31
2018-08-13T10:34:19.320Z,20.21
2018-08-13T10:35:29.478Z,20.12
2018-08-13T10:36:39.610Z,19.83
2018-08-13T10:37:50.732Z,19.93
2018-08-13T10:39:00.886Z,20.12
2018-08-13T10:40:11.270Z,20.12
2018-08-13T10:41:21.367Z,20.01
2018-08-13T10:42:34.062Z,20.01
2018-08-13T10:45:00.791Z,20.1
2018-08-13T10:46:13.262Z,20.2
2018-08-13T10:47:23.489Z,20.51
2018-08-13T10:48:33.864Z,20.61
2018-08-13T10:49:44.368Z,20.21
2018-08-13T10:50:54.652Z,19.93
2018-08-13T10:52:04.873Z,20.12
2018-08-13T10:53:15.088Z,20.14
2018-08-13T10:54:25.405Z,19.75
2018-08-13T10:55:35.773Z,19.76
2018-08-13T10:56:45.918Z,19.56
2018-08-13T10:57:56.084Z,19.17
2018-08-13T10:59:05.975Z,19.07
2018-08-13T11:00:16.140Z,19.65
2018-08-13T11:01:26.316Z,19.75
2018-08-13T11:02:36.512Z,19.84
2018-08-13T11:03:46.757Z,19.64
2018-08-13T11:04:56.786Z,19.64
2018-08-13T11:06:07.131Z,19.64
2018-08-13T11:07:17.044Z,19.34
2018-08-13T11:08:27.185Z,19.82
2018-08-13T11:09:37.333Z,19.92
2018-08-13T11:10:47.514Z,20.2
2018-08-13T11:11:57.459Z,20.99
2018-08-13T11:13:07.301Z,21.37
2018-08-13T11:14:17.533Z,21.56
2018-08-13T11:15:27.373Z,21.85
2018-08-13T11:16:37.614Z,22.44
2018-08-13T11:17:47.840Z,22.72
2018-08-13T11:18:58.345Z,22.72
2018-08-13T11:20:08.505Z,23
2018-08-13T11:21:18.663Z,22.99
2018-08-13T11:22:28.821Z,23.28
2018-08-13T11:23:39.011Z,23.38
2018-08-13T11:24:49.370Z,23.66
2018-08-13T11:25:59.280Z,23.86
2018-08-13T11:27:09.456Z,24.53
2018-08-13T11:28:19.619Z,24.73
2018-08-13T11:29:29.822Z,24.81
2018-08-13T11:30:39.720Z,25.11
2018-08-13T11:31:49.631Z,25.11
2018-08-13T11:32:59.573Z,25.29
2018-08-13T11:34:09.767Z,25.49
2018-08-13T11:35:19.920Z,25.68
2018-08-13T11:36:30.111Z,25.76
2018-08-13T11:37:40.319Z,26.06
2018-08-13T11:38:50.463Z,26.06
2018-08-13T11:40:00.607Z,26.43
2018-08-13T11:41:11.388Z,26.34
2018-08-13T11:42:21.592Z,26.34
2018-08-13T11:43:31.779Z,26.63
2018-08-13T11:44:42.047Z,26.82
2018-08-13T11:45:52.195Z,27.11
2018-08-13T11:47:02.437Z,27.11
2018-08-13T11:48:12.628Z,26.91
2018-08-13T11:49:22.280Z,27.3
2018-08-13T11:50:32.597Z,27.79
2018-08-13T11:51:42.770Z,28.08
2018-08-13T11:52:52.995Z,28.47
2018-08-13T11:54:03.260Z,28.38
2018-08-13T11:55:13.476Z,28.38
2018-08-13T11:56:23.664Z,28.28
2018-08-13T11:57:34.160Z,28.38
2018-08-13T11:58:44.315Z,28.38
2018-08-13T11:59:54.562Z,28.67
2018-08-13T12:01:04.849Z,28.85
2018-08-13T12:02:14.903Z,28.45
2018-08-13T12:03:26.059Z,29.43
2018-08-13T12:04:36.226Z,29.72
2018-08-13T12:05:46.425Z,29.63
2018-08-13T12:06:56.657Z,29.81
2018-08-13T12:08:06.588Z,30.02
2018-08-13T12:09:16.745Z,30.19
2018-08-13T12:10:26.914Z,30.19
2018-08-13T12:11:36.743Z,30.39
2018-08-13T12:12:46.926Z,30.57
2018-08-13T12:13:56.840Z,30.87
2018-08-13T12:15:07.440Z,31.16
2018-08-13T12:16:17.584Z,31.06
2018-08-13T12:17:27.782Z,31.25
2018-08-13T12:18:37.944Z,31.74
2018-08-13T12:19:47.833Z,32.31
2018-08-13T12:20:57.976Z,32.21
2018-08-13T12:22:08.184Z,32.6
2018-08-13T12:23:18.417Z,32.7
2018-08-13T12:24:28.315Z,32.21
2018-08-13T12:25:38.520Z,32.5
2018-08-13T12:26:48.663Z,32.59
2018-08-13T12:27:59.068Z,32.59
2018-08-13T12:29:09.106Z,33.17
2018-08-13T12:30:20.347Z,32.87
2018-08-13T12:31:30.500Z,33.36
2018-08-13T12:32:40.649Z,33.65
2018-08-13T12:33:50.545Z,34.52
2018-08-13T12:35:00.677Z,34.52
2018-08-13T12:36:10.819Z,35.1
2018-08-13T12:37:20.693Z,35.29
2018-08-13T12:38:30.889Z,35.68
2018-08-13T12:39:41.158Z,35.88
2018-08-13T12:40:51.305Z,36.65
2018-08-13T12:42:01.567Z,36.73
2018-08-13T12:43:11.715Z,37.04
2018-08-13T12:44:21.844Z,37.22
2018-08-13T12:45:32.024Z,37.8
2018-08-13T12:46:41.912Z,37.99
2018-08-13T12:47:51.533Z,38.57
2018-08-13T12:49:01.419Z,38.57
2018-08-13T12:50:11.293Z,38.96
2018-08-13T12:51:21.412Z,39.75
2018-08-13T12:52:31.569Z,40.01
2018-08-13T12:53:42.700Z,40.11
2018-08-13T12:54:52.857Z,40.01
2018-08-13T12:56:03.253Z,41.36
2018-08-13T12:57:13.611Z,41.16
2018-08-13T12:58:24.199Z,41.55
2018-08-13T12:59:34.340Z,41.63
2018-08-13T13:00:44.272Z,42.5
2018-08-13T13:01:55.611Z,42.79
2018-08-13T13:03:05.827Z,43.37
2018-08-13T13:04:16.144Z,43.57
2018-08-13T13:05:26.026Z,43.93
2018-08-13T13:06:35.984Z,44.61
2018-08-13T13:07:46.139Z,44.71
2018-08-13T13:08:56.420Z,44.88
2018-08-13T13:10:06.965Z,45.95
2018-08-13T13:11:17.122Z,46.14
2018-08-13T13:12:27.270Z,48.27
2018-08-13T13:13:37.438Z,47.4
2018-08-13T13:14:47.414Z,47.2
2018-08-13T13:15:57.881Z,47.5
2018-08-13T13:17:08.017Z,47.69
2018-08-13T13:18:18.186Z,48.18
2018-08-13T13:19:28.358Z,49.24
2018-08-13T13:20:38.732Z,48.95
2018-08-13T13:21:49.094Z,49.92
2018-08-13T13:22:59.017Z,50.21
2018-08-13T13:24:09.170Z,50.12
2018-08-13T13:25:19.337Z,49.92
2018-08-13T13:26:30.491Z,50.6
2018-08-13T13:27:40.654Z,50.79
2018-08-13T13:28:50.807Z,50.7
2018-08-13T13:30:00.772Z,51.57
2018-08-13T13:31:10.921Z,51.28
2018-08-13T13:32:21.112Z,51.47
2018-08-13T13:33:31.247Z,51.37
2018-08-13T13:34:41.592Z,50.79
2018-08-13T13:35:51.517Z,51.09
2018-08-13T13:37:01.707Z,51.28
2018-08-13T13:38:11.981Z,52.06
2018-08-13T13:39:22.122Z,51.96
2018-08-13T13:40:32.519Z,51.86
2018-08-13T13:41:42.514Z,51.47
2018-08-13T13:42:52.756Z,52.34
2018-08-13T13:44:02.895Z,52.06
2018-08-13T13:45:13.035Z,52.12
2018-08-13T13:46:23.419Z,53.19
2018-08-13T13:47:33.863Z,53.29
2018-08-13T13:48:44.024Z,52.9
2018-08-13T13:49:54.207Z,53.29
2018-08-13T13:51:04.394Z,53.97
2018-08-13T13:52:14.656Z,55.22
2018-08-13T13:53:24.929Z,55.32
2018-08-13T13:54:35.115Z,54.62
2018-08-13T13:55:45.320Z,54.33
2018-08-13T13:56:55.259Z,54.43
2018-08-13T13:58:05.382Z,54.62
2018-08-13T13:59:16.638Z,54.52
2018-08-13T14:00:27.492Z,55.4
2018-08-13T14:01:37.687Z,55.58
2018-08-13T14:02:47.847Z,55.68
2018-08-13T14:03:58.007Z,55.98
2018-08-13T14:05:08.180Z,55.58
2018-08-13T14:06:18.456Z,55.2
2018-08-13T14:07:29.078Z,56.72
2018-08-13T14:08:39.269Z,56.34
2018-08-13T14:09:49.520Z,55.85
2018-08-13T14:10:59.778Z,56.92
2018-08-13T14:12:10.104Z,56.92
2018-08-13T14:13:20.279Z,57.11
2018-08-13T14:14:30.500Z,56.7
2018-08-13T14:15:40.719Z,57.18
2018-08-13T14:16:50.890Z,57.08
2018-08-13T14:18:01.057Z,57.28
2018-08-13T14:19:11.200Z,57.86
2018-08-13T14:20:21.470Z,57.28
2018-08-13T14:21:31.675Z,57.66
2018-08-13T14:22:41.881Z,57.76
2018-08-13T14:23:51.456Z,58.14
2018-08-13T14:25:01.896Z,57.76
2018-08-13T14:26:12.112Z,57.95
2018-08-13T14:27:22.258Z,57.76
2018-08-13T14:28:32.412Z,57.86
2018-08-13T14:29:42.545Z,58.34
2018-08-13T14:30:52.728Z,58.44
2018-08-13T14:32:02.886Z,58.53
2018-08-13T14:33:13.266Z,58.34
2018-08-13T14:34:23.893Z,58.8
2018-08-13T14:35:34.711Z,59.11
2018-08-13T14:36:44.864Z,58.92
2018-08-13T14:37:55.048Z,59.31
2018-08-13T14:39:05.197Z,59.28
2018-08-13T14:40:16.326Z,59.08
2018-08-13T14:41:26.560Z,59.76
2018-08-13T14:42:36.761Z,59.56
2018-08-13T14:43:47.006Z,59.47
2018-08-13T14:44:57.163Z,59.86
2018-08-13T14:46:07.326Z,59.47
2018-08-13T14:47:17.239Z,59.56
2018-08-13T14:48:27.413Z,59.56
2018-08-13T14:49:37.607Z,59.47
2018-08-13T14:50:47.768Z,59.18
2018-08-13T14:51:57.947Z,59.08
2018-08-13T14:53:08.166Z,59.18
2018-08-13T14:54:18.325Z,58.89
2018-08-13T14:55:28.473Z,58.7
2018-08-13T14:56:38.665Z,58.7
2018-08-13T14:57:49.017Z,58.5
2018-08-13T14:58:59.320Z,58.4
2018-08-13T15:00:09.601Z,58.21
2018-08-13T15:01:19.819Z,58.12
2018-08-13T15:02:30.003Z,58.6
2018-08-13T15:03:39.902Z,58.31
2018-08-13T15:04:50.040Z,58.21
2018-08-13T15:06:00.296Z,58.31
2018-08-13T15:07:10.450Z,58.4
2018-08-13T15:08:20.653Z,58.31
2018-08-13T15:09:30.917Z,58.5
2018-08-13T15:10:41.102Z,58.31
2018-08-13T15:11:51.301Z,58.31